createdAt,value
2022-09-02T00:01:04.056Z,3.00
2022-09-02T00:04:14.627Z,2.75
2022-09-02T00:07:16.639Z,3.00
2022-09-02T00:10:18.951Z,3.00
2022-09-02T00:13:21.601Z,0.50
2022-09-02T00:16:25.618Z,3.50
2022-09-02T00:19:29.625Z,3.50
2022-09-02T00:22:32.002Z,3.00
2022-09-02T00:25:35.455Z,3.50
2022-09-02T00:28:38.506Z,4.50
2022-09-02T00:31:44.380Z,5.00
2022-09-02T00:34:47.059Z,3.00
2022-09-02T00:37:49.578Z,4.50
2022-09-02T00:40:51.993Z,5.00
2022-09-02T00:44:04.097Z,5.00
2022-09-02T00:47:06.479Z,2.75
2022-09-02T00:50:12.154Z,3.25
2022-09-02T00:53:14.972Z,5.75
2022-09-02T00:56:24.060Z,4.00
2022-09-02T00:59:41.450Z,5.00
2022-09-02T01:02:45.205Z,5.00
2022-09-02T01:05:49.565Z,2.50
2022-09-02T01:09:03.815Z,5.00
2022-09-02T01:12:07.047Z,5.00
2022-09-02T01:15:11.577Z,4.00
2022-09-02T01:18:19.073Z,4.25
2022-09-02T01:21:23.126Z,4.25
2022-09-02T01:24:31.172Z,4.00
2022-09-02T01:27:33.277Z,3.25
2022-09-02T01:30:37.455Z,2.00
2022-09-02T01:33:39.541Z,4.00
2022-09-02T01:36:42.870Z,2.00
2022-09-02T01:39:45.816Z,4.00
2022-09-02T01:42:48.137Z,3.25
2022-09-02T01:45:52.554Z,4.25
2022-09-02T01:48:56.156Z,4.00
2022-09-02T01:51:58.107Z,5.00
2022-09-02T01:55:00.441Z,2.50
2022-09-02T01:58:02.809Z,2.00
2022-09-02T02:01:06.757Z,4.50
2022-09-02T02:04:13.407Z,2.75
2022-09-02T02:07:20.125Z,4.00
2022-09-02T02:10:22.487Z,3.75
2022-09-02T02:13:25.053Z,3.00
2022-09-02T02:16:28.149Z,2.00
2022-09-02T02:19:30.554Z,3.50
2022-09-02T02:22:34.521Z,3.50
2022-09-02T02:25:36.761Z,3.50
2022-09-02T02:28:38.926Z,4.50
2022-09-02T02:31:42.242Z,4.25
2022-09-02T02:34:46.387Z,2.00
2022-09-02T02:37:50.326Z,2.00
2022-09-02T02:40:57.820Z,4.00
2022-09-02T02:44:00.820Z,2.00
2022-09-02T02:47:03.574Z,4.00
2022-09-02T02:50:08.253Z,4.00
2022-09-02T02:53:13.406Z,2.00
2022-09-02T02:56:16.754Z,2.50
2022-09-02T02:59:18.882Z,5.25
2022-09-02T03:02:22.213Z,2.00
2022-09-02T03:05:25.911Z,4.00
2022-09-02T03:08:28.791Z,6.00
2022-09-02T03:11:32.006Z,2.00
2022-09-02T03:14:34.407Z,5.67
2022-09-02T03:17:36.522Z,4.00
2022-09-02T03:20:40.370Z,4.50
2022-09-02T03:23:44.955Z,4.33
2022-09-02T03:26:47.551Z,3.00
2022-09-02T03:29:49.576Z,4.00
2022-09-02T03:32:53.535Z,3.33
2022-09-02T03:35:55.795Z,6.00
2022-09-02T03:39:00.708Z,5.33
2022-09-02T03:42:05.723Z,4.00
2022-09-02T03:45:10.153Z,4.00
2022-09-02T03:48:13.713Z,2.00
2022-09-02T03:51:17.992Z,2.00
2022-09-02T03:54:20.246Z,4.67
2022-09-02T03:57:25.787Z,4.00
2022-09-02T04:00:33.469Z,4.00
2022-09-02T04:03:38.708Z,4.00
2022-09-02T04:06:40.809Z,4.33
2022-09-02T04:09:46.633Z,2.00
2022-09-02T04:12:50.376Z,5.00
2022-09-02T04:15:53.083Z,2.67
2022-09-02T04:19:01.633Z,4.00
2022-09-02T04:22:04.647Z,4.33
2022-09-02T04:25:08.626Z,1.75
2022-09-02T04:28:13.093Z,4.00
2022-09-02T04:31:19.123Z,2.00
2022-09-02T04:34:22.817Z,5.00
2022-09-02T04:37:26.795Z,5.00
2022-09-02T04:40:31.543Z,4.00
2022-09-02T04:43:34.018Z,2.67
2022-09-02T04:46:36.655Z,5.00
2022-09-02T04:49:43.141Z,4.33
2022-09-02T04:52:46.307Z,5.67
2022-09-02T04:55:49.085Z,4.00
2022-09-02T04:58:52.830Z,4.00
2022-09-02T05:01:56.665Z,7.33
2022-09-02T05:05:02.854Z,3.00
2022-09-02T05:08:13.110Z,5.00
2022-09-02T05:11:19.394Z,5.50
2022-09-02T05:14:24.643Z,5.00
2022-09-02T05:17:32.049Z,2.00
2022-09-02T05:20:35.342Z,2.00
2022-09-02T05:23:38.064Z,4.00
2022-09-02T05:26:42.386Z,4.50
2022-09-02T05:29:45.713Z,5.00
2022-09-02T05:32:50.642Z,4.00
2022-09-02T05:35:54.489Z,4.00
2022-09-02T05:38:58.104Z,5.75
2022-09-02T05:42:00.821Z,4.00
2022-09-02T05:45:03.121Z,4.75
2022-09-02T05:48:25.509Z,5.00
2022-09-02T05:51:27.594Z,3.25
2022-09-02T05:54:35.218Z,5.25
2022-09-02T05:57:40.462Z,5.00
2022-09-02T06:00:44.492Z,3.00
2022-09-02T06:03:46.648Z,6.00
2022-09-02T06:06:49.819Z,4.00
2022-09-02T06:09:53.574Z,3.00
2022-09-02T06:12:59.562Z,3.00
2022-09-02T06:16:06.259Z,4.00
2022-09-02T06:19:10.193Z,2.00
2022-09-02T06:22:13.606Z,3.75
2022-09-02T06:25:20.924Z,2.25
2022-09-02T06:28:23.971Z,3.25
2022-09-02T06:31:28.059Z,2.25
2022-09-02T06:34:39.289Z,2.00
2022-09-02T06:37:42.182Z,3.00
2022-09-02T06:40:53.818Z,3.50
2022-09-02T06:44:07.909Z,3.00
2022-09-02T06:47:13.203Z,3.00
2022-09-02T06:50:15.644Z,2.00
2022-09-02T06:53:19.299Z,3.00
2022-09-02T06:56:22.193Z,3.00
2022-09-02T06:59:24.682Z,2.50
2022-09-02T07:02:29.597Z,1.75
2022-09-02T07:05:31.678Z,1.50
2022-09-02T07:08:34.385Z,2.00
2022-09-02T07:11:38.062Z,2.00
2022-09-02T07:14:43.835Z,2.00
2022-09-02T07:17:49.633Z,1.25
2022-09-02T07:21:12.182Z,1.00
2022-09-02T07:24:16.727Z,2.00
2022-09-02T07:27:20.459Z,1.00
2022-09-02T07:30:24.602Z,1.50
2022-09-02T07:33:33.840Z,1.75
2022-09-02T07:36:37.029Z,1.00
2022-09-02T07:39:39.627Z,1.33
2022-09-02T07:42:43.427Z,0.00
2022-09-02T07:45:47.072Z,1.00
2022-09-02T07:48:50.201Z,1.00
2022-09-02T07:51:52.957Z,0.67
2022-09-02T07:54:56.550Z,0.00
2022-09-02T07:57:58.936Z,0.00
2022-09-02T08:01:01.817Z,1.67
2022-09-02T08:04:06.483Z,0.00
2022-09-02T08:07:11.611Z,1.00
2022-09-02T08:10:14.791Z,0.33
2022-09-02T08:13:17.659Z,1.00
2022-09-02T08:16:20.086Z,0.00
2022-09-02T08:19:23.985Z,1.00
2022-09-02T08:22:27.110Z,1.00
2022-09-02T08:25:29.295Z,1.00
2022-09-02T08:28:34.786Z,1.00
2022-09-02T08:31:38.149Z,0.00
2022-09-02T08:34:40.782Z,0.00
2022-09-02T08:37:43.103Z,1.00
2022-09-02T08:40:45.419Z,1.00
2022-09-02T08:43:48.968Z,0.00
2022-09-02T08:46:54.315Z,0.00
2022-09-02T08:50:00.714Z,0.00
2022-09-02T08:53:37.281Z,0.67
2022-09-02T08:56:39.338Z,1.00
2022-09-02T08:59:43.836Z,1.00
2022-09-02T09:03:07.810Z,0.67
2022-09-02T09:06:19.072Z,0.00
2022-09-02T09:09:33.235Z,0.00
2022-09-02T09:12:53.315Z,0.67
2022-09-02T09:16:32.647Z,0.00
2022-09-02T09:19:34.832Z,0.00
2022-09-02T09:22:39.461Z,0.50
2022-09-02T09:25:42.847Z,1.00
2022-09-02T09:28:48.235Z,0.00
2022-09-02T09:31:57.432Z,0.00
2022-09-02T09:35:10.630Z,0.00
2022-09-02T09:38:14.163Z,0.00
2022-09-02T09:41:21.035Z,0.00
2022-09-02T09:44:45.980Z,0.67
2022-09-02T09:48:30.829Z,0.00
2022-09-02T09:51:49.917Z,0.00
2022-09-02T09:55:24.696Z,0.00
2022-09-02T09:58:39.683Z,0.00
2022-09-02T10:01:50.509Z,0.00
2022-09-02T10:05:09.725Z,1.00
2022-09-02T10:08:17.810Z,0.00
2022-09-02T10:11:34.517Z,0.00
2022-09-02T10:14:36.520Z,0.00
2022-09-02T10:17:51.367Z,0.00
2022-09-02T10:21:28.409Z,0.00
2022-09-02T10:24:36.832Z,0.00
2022-09-02T10:27:59.026Z,0.00
2022-09-02T10:31:38.964Z,0.00
2022-09-02T10:35:18.531Z,0.00
2022-09-02T10:38:33.289Z,0.00
2022-09-02T10:45:17.916Z,0.00
2022-09-02T10:48:44.723Z,0.67
2022-09-02T10:51:56.255Z,1.00
2022-09-02T10:55:21.260Z,0.00
2022-09-02T10:58:30.334Z,0.00
2022-09-02T11:01:55.516Z,0.00
2022-09-02T11:05:06.813Z,0.00
2022-09-02T11:08:34.687Z,0.00
2022-09-02T11:11:49.912Z,0.00
2022-09-02T11:15:16.750Z,0.00
2022-09-02T11:18:28.051Z,0.00
2022-09-02T11:21:50.566Z,0.00
2022-09-02T11:25:00.693Z,0.00
2022-09-02T11:29:01.679Z,0.00
2022-09-02T11:32:34.682Z,0.00
2022-09-02T11:35:39.019Z,0.00
2022-09-02T11:38:50.234Z,0.00
2022-09-02T11:41:52.403Z,0.67
2022-09-02T11:45:19.857Z,0.00
2022-09-02T11:48:33.172Z,0.00
2022-09-02T11:52:12.556Z,0.00
2022-09-02T11:55:24.882Z,1.00
2022-09-02T11:58:40.298Z,0.00
2022-09-02T12:01:52.450Z,0.67
2022-09-02T12:05:33.014Z,0.00
2022-09-02T12:08:38.641Z,0.00
2022-09-02T12:11:47.100Z,0.00
2022-09-02T12:14:49.971Z,0.00
2022-09-02T12:17:52.257Z,0.00
2022-09-02T12:21:00.298Z,1.00
2022-09-02T12:24:07.216Z,0.00
2022-09-02T12:27:10.824Z,0.00
2022-09-02T12:30:13.290Z,0.00
2022-09-02T12:33:30.151Z,0.00
2022-09-02T12:36:41.413Z,0.67
2022-09-02T12:39:50.810Z,0.00
2022-09-02T12:42:54.028Z,0.00
2022-09-02T12:46:32.110Z,0.33
2022-09-02T12:50:11.959Z,0.67
2022-09-02T12:53:37.480Z,0.00
2022-09-02T12:56:48.389Z,0.00
2022-09-02T12:59:59.299Z,0.67
2022-09-02T13:03:38.848Z,0.00
2022-09-02T13:06:59.805Z,0.00
2022-09-02T13:10:39.607Z,0.00
2022-09-02T13:14:05.020Z,0.67
2022-09-02T13:17:34.966Z,0.00
2022-09-02T13:20:56.104Z,0.00
2022-09-02T13:24:28.013Z,0.00
2022-09-02T13:27:33.073Z,0.00
2022-09-02T13:31:00.382Z,0.00
2022-09-02T13:34:13.312Z,0.00
2022-09-02T13:37:36.672Z,0.00
2022-09-02T13:40:40.482Z,0.00
2022-09-02T13:43:42.925Z,0.00
2022-09-02T13:46:51.172Z,0.00
2022-09-02T13:49:55.003Z,0.00
2022-09-02T13:56:25.102Z,0.00
2022-09-02T13:59:54.113Z,0.00
2022-09-02T14:02:59.461Z,1.00
2022-09-02T14:06:02.005Z,0.67
2022-09-02T14:09:11.880Z,0.67
2022-09-02T14:12:14.109Z,1.00
2022-09-02T14:15:17.696Z,1.00
2022-09-02T14:18:22.318Z,1.00
2022-09-02T14:21:24.756Z,0.67
2022-09-02T14:24:29.275Z,0.00
2022-09-02T14:27:31.552Z,0.00
2022-09-02T14:30:37.040Z,1.00
2022-09-02T14:33:46.445Z,0.00
2022-09-02T14:36:48.598Z,0.00
2022-09-02T14:40:08.954Z,0.00
2022-09-02T14:43:15.873Z,0.00
2022-09-02T14:46:33.842Z,0.00
2022-09-02T14:49:46.610Z,0.00
2022-09-02T14:52:58.466Z,1.00
2022-09-02T14:56:00.968Z,0.67
2022-09-02T14:59:04.179Z,0.00
2022-09-02T15:02:06.199Z,0.67
2022-09-02T15:05:11.174Z,0.00
2022-09-02T15:08:14.239Z,0.67
2022-09-02T15:11:20.345Z,0.33
2022-09-02T15:14:22.374Z,1.00
2022-09-02T15:17:26.289Z,0.00
2022-09-02T15:20:28.483Z,1.00
2022-09-02T15:23:34.598Z,0.00
2022-09-02T15:26:37.047Z,1.33
2022-09-02T15:29:39.565Z,0.67
2022-09-02T15:32:42.066Z,1.00
2022-09-02T15:35:44.429Z,1.00
2022-09-02T15:38:46.843Z,1.00
2022-09-02T15:41:50.068Z,0.00
2022-09-02T15:44:52.523Z,0.33
2022-09-02T15:47:59.565Z,0.67
2022-09-02T15:51:11.313Z,0.00
2022-09-02T15:54:16.707Z,1.00
2022-09-02T15:57:18.853Z,0.67
2022-09-02T16:00:21.187Z,0.33
2022-09-02T16:03:23.467Z,0.33
2022-09-02T16:06:26.427Z,0.67
2022-09-02T16:09:29.016Z,0.67
2022-09-02T16:12:32.190Z,1.00
2022-09-02T16:15:34.524Z,1.00
2022-09-02T16:18:38.107Z,1.00
2022-09-02T16:21:41.197Z,1.00
2022-09-02T16:24:43.472Z,1.00
2022-09-02T16:27:57.802Z,0.00
2022-09-02T16:31:00.336Z,1.00
2022-09-02T16:34:08.205Z,1.00
2022-09-02T16:37:10.590Z,1.00
2022-09-02T16:40:21.072Z,1.33
2022-09-02T16:43:24.656Z,2.00
2022-09-02T16:46:28.052Z,1.00
2022-09-02T16:49:30.377Z,1.00
2022-09-02T16:52:35.141Z,0.00
2022-09-02T16:55:42.138Z,1.00
2022-09-02T16:58:44.264Z,0.67
2022-09-02T17:01:46.771Z,1.00
2022-09-02T17:04:49.086Z,1.00
2022-09-02T17:07:55.437Z,1.00
2022-09-02T17:11:36.404Z,1.00
2022-09-02T17:14:38.643Z,1.00
2022-09-02T17:17:42.287Z,0.33
2022-09-02T17:20:44.522Z,1.00
2022-09-02T17:23:47.575Z,0.67
2022-09-02T17:26:51.969Z,2.50
2022-09-02T17:29:55.024Z,2.00
2022-09-02T17:32:59.634Z,1.75
2022-09-02T17:36:02.481Z,1.25
2022-09-02T17:39:07.425Z,1.00
2022-09-02T17:42:09.404Z,0.75
2022-09-02T17:45:12.811Z,0.25
2022-09-02T17:48:36.963Z,2.00
2022-09-02T17:51:37.565Z,1.00
2022-09-02T17:54:41.573Z,0.25
2022-09-02T17:58:09.521Z,1.00
2022-09-02T18:01:21.596Z,2.00
2022-09-02T18:05:02.833Z,2.00
2022-09-02T18:08:29.061Z,1.00
2022-09-02T18:11:41.986Z,2.00
2022-09-02T18:14:58.915Z,2.00
2022-09-02T18:18:03.759Z,2.00
2022-09-02T18:21:16.395Z,2.75
2022-09-02T18:24:32.522Z,2.00
2022-09-02T18:28:10.931Z,3.00
2022-09-02T18:31:34.419Z,2.00
2022-09-02T18:38:42.193Z,3.25
2022-09-02T18:42:03.583Z,2.75
2022-09-02T18:45:23.935Z,3.00
2022-09-02T18:48:35.224Z,2.50
2022-09-02T18:51:41.112Z,3.50
2022-09-02T18:54:54.606Z,4.25
2022-09-02T18:58:00.422Z,2.00
2022-09-02T19:01:31.327Z,4.75
2022-09-02T19:04:35.119Z,3.00
2022-09-02T19:07:56.716Z,3.50
2022-09-02T19:11:14.374Z,3.25
2022-09-02T19:14:29.977Z,3.25
2022-09-02T19:17:32.127Z,4.00
2022-09-02T19:20:35.757Z,4.00
2022-09-02T19:23:38.630Z,4.00
2022-09-02T19:26:43.255Z,2.25
2022-09-02T19:29:52.981Z,3.25
2022-09-02T19:32:59.221Z,2.00
2022-09-02T19:36:01.632Z,4.75
2022-09-02T19:39:04.194Z,3.25
2022-09-02T19:42:06.866Z,4.00
2022-09-02T19:45:14.158Z,3.50
2022-09-02T19:48:19.928Z,4.00
2022-09-02T19:51:27.257Z,4.00
2022-09-02T19:54:29.777Z,3.00
2022-09-02T19:57:32.654Z,2.00
2022-09-02T20:00:36.939Z,4.50
2022-09-02T20:03:40.448Z,3.00
2022-09-02T20:06:43.084Z,3.75
2022-09-02T20:09:45.942Z,3.75
2022-09-02T20:12:49.934Z,4.00
2022-09-02T20:15:56.519Z,3.50
2022-09-02T20:18:59.051Z,4.00
2022-09-02T20:22:01.346Z,3.00
2022-09-02T20:25:03.903Z,3.00
2022-09-02T20:28:33.396Z,3.00
2022-09-02T20:32:07.264Z,5.50
2022-09-02T20:35:27.711Z,4.00
2022-09-02T20:38:51.251Z,3.00
2022-09-02T20:42:00.600Z,4.00
2022-09-02T20:45:29.116Z,3.00
2022-09-02T20:49:02.386Z,5.50
2022-09-02T20:52:12.473Z,4.25
2022-09-02T20:55:32.168Z,3.00
2022-09-02T20:58:59.358Z,3.00
2022-09-02T21:02:02.859Z,3.25
2022-09-02T21:05:14.357Z,6.00
2022-09-02T21:08:31.541Z,6.00
2022-09-02T21:11:47.642Z,3.00
2022-09-02T21:15:18.868Z,3.50
2022-09-02T21:18:35.221Z,4.50
2022-09-02T21:21:56.077Z,5.50
2022-09-02T21:25:02.082Z,6.75
2022-09-02T21:28:15.889Z,5.50
2022-09-02T21:31:24.003Z,3.75
2022-09-02T21:34:37.196Z,2.50
2022-09-02T21:37:40.565Z,6.00
2022-09-02T21:41:07.091Z,3.50
2022-09-02T21:44:34.453Z,5.00
2022-09-02T21:47:43.652Z,6.00
2022-09-02T21:50:59.195Z,4.00
2022-09-02T21:54:01.380Z,6.00
2022-09-02T21:57:15.394Z,4.00
2022-09-02T22:00:19.127Z,3.00
2022-09-02T22:03:40.109Z,5.50
2022-09-02T22:06:46.073Z,4.25
2022-09-02T22:09:50.889Z,4.25
2022-09-02T22:12:55.629Z,7.25
2022-09-02T22:16:35.252Z,6.00
2022-09-02T22:19:39.112Z,6.50
2022-09-02T22:22:49.848Z,6.00
2022-09-02T22:26:03.935Z,6.50
2022-09-02T22:29:37.864Z,5.25
2022-09-02T22:33:08.931Z,4.75
2022-09-02T22:36:24.629Z,5.50
2022-09-02T22:39:33.987Z,5.50
2022-09-02T22:42:38.555Z,6.00
2022-09-02T22:46:09.676Z,6.00
2022-09-02T22:49:33.931Z,8.00
2022-09-02T22:52:54.515Z,6.25
2022-09-02T22:56:02.538Z,6.00
2022-09-02T22:59:31.168Z,6.50
2022-09-02T23:02:38.312Z,6.00
2022-09-02T23:06:01.153Z,6.00
2022-09-02T23:09:10.259Z,5.50
2022-09-02T23:12:29.924Z,7.00
2022-09-02T23:15:47.894Z,6.00
2022-09-02T23:18:53.249Z,6.00
2022-09-02T23:22:11.988Z,6.50
2022-09-02T23:25:36.727Z,6.25
2022-09-02T23:28:54.380Z,5.25
2022-09-02T23:32:08.625Z,6.00
2022-09-02T23:35:48.412Z,7.00
2022-09-02T23:39:13.009Z,6.50
2022-09-02T23:42:21.234Z,5.00
2022-09-02T23:45:32.079Z,6.00
2022-09-02T23:49:05.448Z,6.50
2022-09-02T23:52:45.065Z,6.75
2022-09-02T23:56:08.635Z,6.00
2022-09-02T23:59:32.612Z,5.25
